sensor_id;sensor_type;location;lat;lon;timestamp;pressure;altitude;pressure_sealevel;temperature;humidity
59337;BME280;45115;52.002;4.686;2023-06-24T00:00:32;102466.03;;;17.38;70.52
59337;BME280;45115;52.002;4.686;2023-06-24T00:02:59;102461.81;;;17.34;71.33
59337;BME280;45115;52.002;4.686;2023-06-24T00:05:28;102473.03;;;17.33;72.62
59337;BME280;45115;52.002;4.686;2023-06-24T00:07:55;102478.00;;;17.39;71.21
59337;BME280;45115;52.002;4.686;2023-06-24T00:10:22;102467.75;;;17.39;69.10
59337;BME280;45115;52.002;4.686;2023-06-24T00:12:49;102473.31;;;17.39;67.92
59337;BME280;45115;52.002;4.686;2023-06-24T00:15:17;102474.34;;;17.38;67.55
59337;BME280;45115;52.002;4.686;2023-06-24T00:17:44;102477.53;;;17.34;68.12
59337;BME280;45115;52.002;4.686;2023-06-24T00:20:11;102463.31;;;17.19;69.33
59337;BME280;45115;52.002;4.686;2023-06-24T00:22:40;102480.91;;;17.18;70.85
59337;BME280;45115;52.002;4.686;2023-06-24T00:25:09;102471.75;;;17.08;72.87
59337;BME280;45115;52.002;4.686;2023-06-24T00:27:36;102482.25;;;17.05;74.80
59337;BME280;45115;52.002;4.686;2023-06-24T00:30:03;102477.03;;;17.02;77.06
59337;BME280;45115;52.002;4.686;2023-06-24T00:32:31;102477.19;;;17.00;79.23
59337;BME280;45115;52.002;4.686;2023-06-24T00:34:58;102468.56;;;16.94;80.90
59337;BME280;45115;52.002;4.686;2023-06-24T00:37:25;102477.59;;;16.96;81.74
59337;BME280;45115;52.002;4.686;2023-06-24T00:39:53;102484.47;;;16.92;82.17
59337;BME280;45115;52.002;4.686;2023-06-24T00:42:20;102484.00;;;16.87;82.65
59337;BME280;45115;52.002;4.686;2023-06-24T00:44:46;102483.72;;;16.80;83.05
59337;BME280;45115;52.002;4.686;2023-06-24T00:47:14;102476.16;;;16.82;84.27
59337;BME280;45115;52.002;4.686;2023-06-24T00:49:42;102481.56;;;16.74;84.21
59337;BME280;45115;52.002;4.686;2023-06-24T00:52:10;102477.72;;;16.65;83.70
59337;BME280;45115;52.002;4.686;2023-06-24T00:54:41;102483.28;;;16.56;83.81
59337;BME280;45115;52.002;4.686;2023-06-24T00:57:07;102477.44;;;16.49;83.89
59337;BME280;45115;52.002;4.686;2023-06-24T00:59:35;102475.22;;;16.43;84.55
59337;BME280;45115;52.002;4.686;2023-06-24T01:02:03;102475.81;;;16.37;85.06
59337;BME280;45115;52.002;4.686;2023-06-24T01:04:33;102481.59;;;16.34;85.72
59337;BME280;45115;52.002;4.686;2023-06-24T01:07:02;102484.78;;;16.30;86.51
59337;BME280;45115;52.002;4.686;2023-06-24T01:09:29;102470.78;;;16.22;87.03
59337;BME280;45115;52.002;4.686;2023-06-24T01:11:56;102474.72;;;16.19;87.37
59337;BME280;45115;52.002;4.686;2023-06-24T01:14:23;102476.03;;;16.15;88.02
59337;BME280;45115;52.002;4.686;2023-06-24T01:16:54;102468.72;;;16.05;88.96
59337;BME280;45115;52.002;4.686;2023-06-24T01:19:40;102464.66;;;16.09;89.87
59337;BME280;45115;52.002;4.686;2023-06-24T01:22:23;102462.88;;;16.08;90.34
59337;BME280;45115;52.002;4.686;2023-06-24T01:25:05;102469.16;;;16.00;90.56
59337;BME280;45115;52.002;4.686;2023-06-24T01:27:47;102452.72;;;15.99;91.12
59337;BME280;45115;52.002;4.686;2023-06-24T01:30:36;102460.22;;;15.87;91.17
59337;BME280;45115;52.002;4.686;2023-06-24T01:33:10;102453.94;;;15.85;90.96
59337;BME280;45115;52.002;4.686;2023-06-24T01:35:41;102462.66;;;15.81;90.59
59337;BME280;45115;52.002;4.686;2023-06-24T01:38:15;102459.44;;;15.76;90.35
59337;BME280;45115;52.002;4.686;2023-06-24T01:40:45;102467.28;;;15.71;90.20
59337;BME280;45115;52.002;4.686;2023-06-24T01:43:13;102457.53;;;15.67;89.83
59337;BME280;45115;52.002;4.686;2023-06-24T01:45:45;102461.31;;;15.66;89.73
59337;BME280;45115;52.002;4.686;2023-06-24T01:48:18;102457.66;;;15.65;89.65
59337;BME280;45115;52.002;4.686;2023-06-24T01:50:59;102455.03;;;15.63;89.78
59337;BME280;45115;52.002;4.686;2023-06-24T01:53:28;102454.31;;;15.61;89.97
59337;BME280;45115;52.002;4.686;2023-06-24T01:55:57;102455.03;;;15.63;90.37
59337;BME280;45115;52.002;4.686;2023-06-24T01:58:25;102455.03;;;15.63;90.43
59337;BME280;45115;52.002;4.686;2023-06-24T02:00:53;102440.34;;;15.63;90.24
59337;BME280;45115;52.002;4.686;2023-06-24T02:03:23;102455.78;;;15.66;90.22
59337;BME280;45115;52.002;4.686;2023-06-24T02:05:51;102448.91;;;15.60;89.98
59337;BME280;45115;52.002;4.686;2023-06-24T02:08:21;102451.81;;;15.58;90.23
59337;BME280;45115;52.002;4.686;2023-06-24T02:10:50;102451.47;;;15.52;90.17
59337;BME280;45115;52.002;4.686;2023-06-24T02:13:18;102447.13;;;15.49;90.18
59337;BME280;45115;52.002;4.686;2023-06-24T02:15:49;102448.25;;;15.47;91.24
59337;BME280;45115;52.002;4.686;2023-06-24T02:18:17;102442.00;;;15.45;91.57
59337;BME280;45115;52.002;4.686;2023-06-24T02:20:48;102441.53;;;15.40;91.68
59337;BME280;45115;52.002;4.686;2023-06-24T02:23:17;102442.66;;;15.37;91.76
59337;BME280;45115;52.002;4.686;2023-06-24T02:25:46;102443.81;;;15.35;91.99
59337;BME280;45115;52.002;4.686;2023-06-24T02:28:14;102435.66;;;15.33;92.51
59337;BME280;45115;52.002;4.686;2023-06-24T02:30:42;102439.91;;;15.37;93.08
59337;BME280;45115;52.002;4.686;2023-06-24T02:33:09;102429.50;;;15.41;93.99
59337;BME280;45115;52.002;4.686;2023-06-24T02:35:37;102433.00;;;15.43;94.59
59337;BME280;45115;52.002;4.686;2023-06-24T02:38:08;102436.59;;;15.43;94.52
59337;BME280;45115;52.002;4.686;2023-06-24T02:40:35;102433.56;;;15.46;94.44
59337;BME280;45115;52.002;4.686;2023-06-24T02:43:02;102436.59;;;15.43;94.20
59337;BME280;45115;52.002;4.686;2023-06-24T02:45:29;102427.09;;;15.36;94.04
59337;BME280;45115;52.002;4.686;2023-06-24T02:47:57;102430.59;;;15.38;94.83
59337;BME280;45115;52.002;4.686;2023-06-24T02:50:25;102429.59;;;15.39;95.05
59337;BME280;45115;52.002;4.686;2023-06-24T02:52:53;102430.50;;;15.40;96.27
59337;BME280;45115;52.002;4.686;2023-06-24T02:55:26;102430.94;;;15.45;96.31
59337;BME280;45115;52.002;4.686;2023-06-24T02:57:59;102429.94;;;15.46;97.04
59337;BME280;45115;52.002;4.686;2023-06-24T03:00:27;102433.31;;;15.49;97.28
59337;BME280;45115;52.002;4.686;2023-06-24T03:03:09;102433.47;;;15.48;97.59
59337;BME280;45115;52.002;4.686;2023-06-24T03:05:43;102435.34;;;15.47;98.12
59337;BME280;45115;52.002;4.686;2023-06-24T03:08:14;102420.94;;;15.53;98.43
59337;BME280;45115;52.002;4.686;2023-06-24T03:10:44;102434.75;;;15.53;98.62
59337;BME280;45115;52.002;4.686;2023-06-24T03:13:16;102429.13;;;15.55;98.83
59337;BME280;45115;52.002;4.686;2023-06-24T03:15:46;102409.59;;;15.47;99.08
59337;BME280;45115;52.002;4.686;2023-06-24T03:18:13;102426.09;;;15.58;99.38
59337;BME280;45115;52.002;4.686;2023-06-24T03:20:40;102423.31;;;15.58;99.53
59337;BME280;45115;52.002;4.686;2023-06-24T03:23:11;102426.63;;;15.52;99.57
59337;BME280;45115;52.002;4.686;2023-06-24T03:25:38;102426.38;;;15.55;100.00
59337;BME280;45115;52.002;4.686;2023-06-24T03:28:07;102434.50;;;15.56;99.77
59337;BME280;45115;52.002;4.686;2023-06-24T03:30:37;102438.13;;;15.57;99.73
59337;BME280;45115;52.002;4.686;2023-06-24T03:33:05;102431.03;;;15.64;99.66
59337;BME280;45115;52.002;4.686;2023-06-24T03:35:32;102429.16;;;15.64;99.37
59337;BME280;45115;52.002;4.686;2023-06-24T03:38:02;102437.59;;;15.63;99.32
59337;BME280;45115;52.002;4.686;2023-06-24T03:40:30;102431.03;;;15.64;99.22
59337;BME280;45115;52.002;4.686;2023-06-24T03:42:57;102437.59;;;15.63;99.40
59337;BME280;45115;52.002;4.686;2023-06-24T03:45:25;102434.53;;;15.66;99.54
59337;BME280;45115;52.002;4.686;2023-06-24T03:47:52;102439.81;;;15.69;99.63
59337;BME280;45115;52.002;4.686;2023-06-24T03:50:19;102442.41;;;15.71;99.63
59337;BME280;45115;52.002;4.686;2023-06-24T03:52:47;102433.56;;;15.77;99.88
59337;BME280;45115;52.002;4.686;2023-06-24T03:55:14;102442.19;;;15.83;99.80
59337;BME280;45115;52.002;4.686;2023-06-24T03:57:41;102435.78;;;15.83;99.79
59337;BME280;45115;52.002;4.686;2023-06-24T04:00:09;102435.53;;;15.95;99.42
59337;BME280;45115;52.002;4.686;2023-06-24T04:02:43;102430.44;;;16.00;99.11
59337;BME280;45115;52.002;4.686;2023-06-24T04:05:10;102427.69;;;16.10;99.15
59337;BME280;45115;52.002;4.686;2023-06-24T04:07:37;102437.16;;;16.17;98.91
59337;BME280;45115;52.002;4.686;2023-06-24T04:10:06;102435.00;;;16.20;98.70
59337;BME280;45115;52.002;4.686;2023-06-24T04:12:34;102436.16;;;16.27;98.60
59337;BME280;45115;52.002;4.686;2023-06-24T04:15:01;102434.44;;;16.26;98.50
59337;BME280;45115;52.002;4.686;2023-06-24T04:17:29;102440.41;;;16.31;98.27
59337;BME280;45115;52.002;4.686;2023-06-24T04:20:00;102429.63;;;16.38;97.68
59337;BME280;45115;52.002;4.686;2023-06-24T04:22:29;102438.25;;;16.44;97.34
59337;BME280;45115;52.002;4.686;2023-06-24T04:24:58;102438.28;;;16.54;96.66
59337;BME280;45115;52.002;4.686;2023-06-24T04:27:25;102434.19;;;16.67;96.08
59337;BME280;45115;52.002;4.686;2023-06-24T04:29:51;102446.53;;;17.76;94.31
59337;BME280;45115;52.002;4.686;2023-06-24T04:32:18;102443.91;;;19.35;86.60
59337;BME280;45115;52.002;4.686;2023-06-24T04:34:46;102444.13;;;20.66;80.58
59337;BME280;45115;52.002;4.686;2023-06-24T04:37:14;102444.97;;;21.71;73.97
59337;BME280;45115;52.002;4.686;2023-06-24T04:39:43;102435.88;;;22.63;69.49
59337;BME280;45115;52.002;4.686;2023-06-24T04:42:11;102447.41;;;23.27;64.65
59337;BME280;45115;52.002;4.686;2023-06-24T04:44:37;102440.25;;;23.77;62.57
59337;BME280;45115;52.002;4.686;2023-06-24T04:47:04;102432.81;;;24.27;60.62
59337;BME280;45115;52.002;4.686;2023-06-24T04:49:31;102436.63;;;24.56;58.97
59337;BME280;45115;52.002;4.686;2023-06-24T04:51:59;102439.50;;;24.62;57.95
59337;BME280;45115;52.002;4.686;2023-06-24T04:54:27;102442.03;;;24.07;58.49
59337;BME280;45115;52.002;4.686;2023-06-24T04:56:54;102441.72;;;22.98;61.64
59337;BME280;45115;52.002;4.686;2023-06-24T04:59:23;102439.97;;;22.13;64.60
59337;BME280;45115;52.002;4.686;2023-06-24T05:01:49;102428.41;;;21.86;66.38
59337;BME280;45115;52.002;4.686;2023-06-24T05:04:16;102442.88;;;23.27;63.09
59337;BME280;45115;52.002;4.686;2023-06-24T05:06:43;102437.63;;;24.33;60.06
59337;BME280;45115;52.002;4.686;2023-06-24T05:09:09;102443.13;;;25.19;57.83
59337;BME280;45115;52.002;4.686;2023-06-24T05:11:40;102439.81;;;26.20;56.27
59337;BME280;45115;52.002;4.686;2023-06-24T05:14:09;102445.09;;;27.16;53.75
59337;BME280;45115;52.002;4.686;2023-06-24T05:16:36;102436.03;;;27.73;53.19
59337;BME280;45115;52.002;4.686;2023-06-24T05:19:02;102436.66;;;28.45;50.00
59337;BME280;45115;52.002;4.686;2023-06-24T05:21:29;102441.19;;;28.97;48.24
59337;BME280;45115;52.002;4.686;2023-06-24T05:23:56;102438.78;;;29.31;44.31
59337;BME280;45115;52.002;4.686;2023-06-24T05:26:23;102442.34;;;29.70;44.52
59337;BME280;45115;52.002;4.686;2023-06-24T05:28:51;102443.47;;;29.87;43.18
59337;BME280;45115;52.002;4.686;2023-06-24T05:31:18;102447.19;;;30.23;42.14
59337;BME280;45115;52.002;4.686;2023-06-24T05:33:44;102441.81;;;30.40;40.55
59337;BME280;45115;52.002;4.686;2023-06-24T05:36:11;102449.75;;;30.31;39.30
59337;BME280;45115;52.002;4.686;2023-06-24T05:38:38;102450.00;;;30.30;39.58
59337;BME280;45115;52.002;4.686;2023-06-24T05:41:05;102450.69;;;30.43;38.42
59337;BME280;45115;52.002;4.686;2023-06-24T05:43:32;102455.59;;;30.66;38.78
59337;BME280;45115;52.002;4.686;2023-06-24T05:46:00;102455.56;;;31.43;37.76
59337;BME280;45115;52.002;4.686;2023-06-24T05:48:27;102462.75;;;31.92;35.80
59337;BME280;45115;52.002;4.686;2023-06-24T05:50:54;102457.44;;;32.70;34.69
59337;BME280;45115;52.002;4.686;2023-06-24T05:53:20;102452.88;;;32.06;35.17
59337;BME280;45115;52.002;4.686;2023-06-24T05:55:47;102459.53;;;32.00;35.12
59337;BME280;45115;52.002;4.686;2023-06-24T05:58:14;102458.41;;;32.13;35.76
59337;BME280;45115;52.002;4.686;2023-06-24T06:00:41;102461.38;;;33.09;33.82
59337;BME280;45115;52.002;4.686;2023-06-24T06:03:09;102453.25;;;33.45;32.69
59337;BME280;45115;52.002;4.686;2023-06-24T06:05:36;102464.28;;;32.57;34.36
59337;BME280;45115;52.002;4.686;2023-06-24T06:08:03;102450.72;;;32.48;33.39
59337;BME280;45115;52.002;4.686;2023-06-24T06:10:30;102446.13;;;32.58;34.30
59337;BME280;45115;52.002;4.686;2023-06-24T06:12:56;102459.50;;;32.46;33.48
59337;BME280;45115;52.002;4.686;2023-06-24T06:15:23;102461.81;;;32.49;34.05
59337;BME280;45115;52.002;4.686;2023-06-24T06:17:52;102463.56;;;32.50;33.34
59337;BME280;45115;52.002;4.686;2023-06-24T06:20:20;102454.31;;;32.32;34.29
59337;BME280;45115;52.002;4.686;2023-06-24T06:22:47;102463.22;;;32.24;34.22
59337;BME280;45115;52.002;4.686;2023-06-24T06:25:14;102459.53;;;32.00;34.13
59337;BME280;45115;52.002;4.686;2023-06-24T06:27:40;102458.78;;;31.70;34.72
59337;BME280;45115;52.002;4.686;2023-06-24T06:30:08;102464.81;;;31.50;35.49
59337;BME280;45115;52.002;4.686;2023-06-24T06:32:35;102468.91;;;30.47;37.66
59337;BME280;45115;52.002;4.686;2023-06-24T06:35:02;102468.97;;;29.55;39.72
59337;BME280;45115;52.002;4.686;2023-06-24T06:37:33;102484.59;;;28.96;41.21
59337;BME280;45115;52.002;4.686;2023-06-24T06:39:59;102475.81;;;28.79;42.64
59337;BME280;45115;52.002;4.686;2023-06-24T06:42:26;102481.31;;;29.61;41.05
59337;BME280;45115;52.002;4.686;2023-06-24T06:44:53;102467.94;;;30.35;39.27
59337;BME280;45115;52.002;4.686;2023-06-24T06:47:20;102465.00;;;30.96;37.55
59337;BME280;45115;52.002;4.686;2023-06-24T06:49:47;102466.25;;;31.53;36.48
59337;BME280;45115;52.002;4.686;2023-06-24T06:52:14;102471.06;;;31.41;36.85
59337;BME280;45115;52.002;4.686;2023-06-24T06:54:42;102465.44;;;31.64;36.54
59337;BME280;45115;52.002;4.686;2023-06-24T06:57:08;102465.31;;;32.17;35.93
59337;BME280;45115;52.002;4.686;2023-06-24T06:59:35;102469.81;;;32.64;34.54
59337;BME280;45115;52.002;4.686;2023-06-24T07:02:02;102459.28;;;31.79;35.69
59337;BME280;45115;52.002;4.686;2023-06-24T07:04:30;102465.59;;;30.14;39.60
59337;BME280;45115;52.002;4.686;2023-06-24T07:06:58;102465.28;;;28.93;41.97
59337;BME280;45115;52.002;4.686;2023-06-24T07:09:24;102475.44;;;28.63;43.56
59337;BME280;45115;52.002;4.686;2023-06-24T07:11:53;102469.56;;;28.64;43.38
59337;BME280;45115;52.002;4.686;2023-06-24T07:14:19;102465.16;;;28.81;43.21
59337;BME280;45115;52.002;4.686;2023-06-24T07:16:46;102466.53;;;29.34;41.83
59337;BME280;45115;52.002;4.686;2023-06-24T07:19:13;102470.03;;;29.86;40.04
59337;BME280;45115;52.002;4.686;2023-06-24T07:21:39;102467.59;;;30.32;39.51
59337;BME280;45115;52.002;4.686;2023-06-24T07:24:06;102461.53;;;30.94;37.53
59337;BME280;45115;52.002;4.686;2023-06-24T07:26:33;102464.75;;;30.98;38.33
59337;BME280;45115;52.002;4.686;2023-06-24T07:29:01;102459.50;;;31.65;36.97
59337;BME280;45115;52.002;4.686;2023-06-24T07:31:32;102473.19;;;32.26;36.50
59337;BME280;45115;52.002;4.686;2023-06-24T07:33:58;102464.94;;;32.76;34.20
59337;BME280;45115;52.002;4.686;2023-06-24T07:36:25;102456.28;;;33.11;33.74
59337;BME280;45115;52.002;4.686;2023-06-24T07:38:52;102470.22;;;32.96;34.59
59337;BME280;45115;52.002;4.686;2023-06-24T07:41:18;102469.88;;;32.92;34.91
59337;BME280;45115;52.002;4.686;2023-06-24T07:43:45;102466.91;;;33.15;33.79
59337;BME280;45115;52.002;4.686;2023-06-24T07:46:30;102470.25;;;33.12;34.16
59337;BME280;45115;52.002;4.686;2023-06-24T07:48:57;102469.00;;;33.36;33.41
59337;BME280;45115;52.002;4.686;2023-06-24T07:51:24;102469.44;;;33.00;32.92
59337;BME280;45115;52.002;4.686;2023-06-24T07:53:51;102468.09;;;32.91;32.86
59337;BME280;45115;52.002;4.686;2023-06-24T07:56:17;102467.25;;;32.91;34.96
59337;BME280;45115;52.002;4.686;2023-06-24T07:58:44;102461.94;;;33.22;34.29
59337;BME280;45115;52.002;4.686;2023-06-24T08:01:11;102458.28;;;33.55;33.60
59337;BME280;45115;52.002;4.686;2023-06-24T08:03:39;102463.44;;;33.74;32.84
59337;BME280;45115;52.002;4.686;2023-06-24T08:06:06;102465.78;;;33.94;32.30
59337;BME280;45115;52.002;4.686;2023-06-24T08:08:32;102461.88;;;34.00;32.16
59337;BME280;45115;52.002;4.686;2023-06-24T08:10:59;102464.66;;;33.62;32.71
59337;BME280;45115;52.002;4.686;2023-06-24T08:13:26;102462.34;;;33.59;32.69
59337;BME280;45115;52.002;4.686;2023-06-24T08:15:52;102457.31;;;33.49;33.39
59337;BME280;45115;52.002;4.686;2023-06-24T08:18:22;102460.56;;;33.41;34.06
59337;BME280;45115;52.002;4.686;2023-06-24T08:20:50;102453.53;;;33.60;33.81
59337;BME280;45115;52.002;4.686;2023-06-24T08:23:17;102462.50;;;33.24;34.28
59337;BME280;45115;52.002;4.686;2023-06-24T08:25:43;102461.09;;;33.88;34.01
59337;BME280;45115;52.002;4.686;2023-06-24T08:28:10;102464.38;;;33.47;34.09
59337;BME280;45115;52.002;4.686;2023-06-24T08:30:37;102468.78;;;33.54;33.78
59337;BME280;45115;52.002;4.686;2023-06-24T08:33:04;102459.84;;;33.62;33.14
59337;BME280;45115;52.002;4.686;2023-06-24T08:35:30;102465.94;;;33.71;32.47
59337;BME280;45115;52.002;4.686;2023-06-24T08:37:58;102460.41;;;33.03;34.45
59337;BME280;45115;52.002;4.686;2023-06-24T08:40:27;102456.00;;;32.96;34.34
59337;BME280;45115;52.002;4.686;2023-06-24T08:42:54;102459.25;;;33.32;34.41
59337;BME280;45115;52.002;4.686;2023-06-24T08:45:21;102457.31;;;33.49;33.94
59337;BME280;45115;52.002;4.686;2023-06-24T08:47:49;102461.16;;;33.27;34.05
59337;BME280;45115;52.002;4.686;2023-06-24T08:50:16;102461.19;;;33.60;33.47
59337;BME280;45115;52.002;4.686;2023-06-24T08:52:48;102459.59;;;33.36;33.34
59337;BME280;45115;52.002;4.686;2023-06-24T08:55:22;102467.25;;;33.19;33.42
59337;BME280;45115;52.002;4.686;2023-06-24T08:57:49;102463.59;;;33.07;33.45
59337;BME280;45115;52.002;4.686;2023-06-24T09:00:17;102455.00;;;32.62;34.63
59337;BME280;45115;52.002;4.686;2023-06-24T09:02:43;102462.41;;;32.91;34.79
59337;BME280;45115;52.002;4.686;2023-06-24T09:05:10;102458.75;;;32.79;34.40
59337;BME280;45115;52.002;4.686;2023-06-24T09:07:37;102463.66;;;32.95;34.10
59337;BME280;45115;52.002;4.686;2023-06-24T09:10:04;102463.41;;;32.57;34.61
59337;BME280;45115;52.002;4.686;2023-06-24T09:12:35;102455.91;;;32.39;35.50
59337;BME280;45115;52.002;4.686;2023-06-24T09:15:02;102465.06;;;32.41;35.75
59337;BME280;45115;52.002;4.686;2023-06-24T09:17:29;102454.91;;;32.45;35.78
59337;BME280;45115;52.002;4.686;2023-06-24T09:20:03;102446.53;;;32.39;36.14
59337;BME280;45115;52.002;4.686;2023-06-24T09:22:31;102446.69;;;32.72;35.51
59337;BME280;45115;52.002;4.686;2023-06-24T09:25:00;102443.72;;;32.78;35.54
59337;BME280;45115;52.002;4.686;2023-06-24T09:27:31;102455.25;;;32.60;35.22
59337;BME280;45115;52.002;4.686;2023-06-24T09:29:59;102449.53;;;32.21;36.58
59337;BME280;45115;52.002;4.686;2023-06-24T09:32:29;102455.28;;;32.37;35.70
59337;BME280;45115;52.002;4.686;2023-06-24T09:34:56;102449.41;;;32.27;37.18
59337;BME280;45115;52.002;4.686;2023-06-24T09:37:24;102447.44;;;32.28;36.40
59337;BME280;45115;52.002;4.686;2023-06-24T09:39:56;102439.31;;;32.71;34.43
59337;BME280;45115;52.002;4.686;2023-06-24T09:42:23;102441.09;;;32.49;36.36
59337;BME280;45115;52.002;4.686;2023-06-24T09:44:53;102443.88;;;32.21;36.73
59337;BME280;45115;52.002;4.686;2023-06-24T09:47:21;102442.22;;;32.36;35.57
59337;BME280;45115;52.002;4.686;2023-06-24T09:49:51;102441.97;;;32.26;34.46
59337;BME280;45115;52.002;4.686;2023-06-24T09:52:22;102443.38;;;32.12;36.15
59337;BME280;45115;52.002;4.686;2023-06-24T09:54:51;102428.75;;;31.92;37.36
59337;BME280;45115;52.002;4.686;2023-06-24T09:57:27;102439.72;;;31.89;37.48
59337;BME280;45115;52.002;4.686;2023-06-24T09:59:55;102431.66;;;32.09;38.62
59337;BME280;45115;52.002;4.686;2023-06-24T10:02:24;102435.66;;;31.96;39.65
59337;BME280;45115;52.002;4.686;2023-06-24T10:04:51;102433.53;;;32.03;38.70
59337;BME280;45115;52.002;4.686;2023-06-24T10:07:19;102430.34;;;32.00;38.31
59337;BME280;45115;52.002;4.686;2023-06-24T10:09:45;102432.66;;;31.91;39.08
59337;BME280;45115;52.002;4.686;2023-06-24T10:12:12;102431.41;;;31.41;39.25
59337;BME280;45115;52.002;4.686;2023-06-24T10:14:39;102428.44;;;31.36;39.08
59337;BME280;45115;52.002;4.686;2023-06-24T10:17:06;102428.91;;;31.33;38.34
59337;BME280;45115;52.002;4.686;2023-06-24T10:19:39;102423.28;;;31.44;38.39
59337;BME280;45115;52.002;4.686;2023-06-24T10:22:07;102435.00;;;31.59;40.24
59337;BME280;45115;52.002;4.686;2023-06-24T10:24:36;102429.06;;;31.72;39.04
59337;BME280;45115;52.002;4.686;2023-06-24T10:27:05;102429.31;;;31.83;39.70
59337;BME280;45115;52.002;4.686;2023-06-24T10:29:34;102422.78;;;32.17;37.31
59337;BME280;45115;52.002;4.686;2023-06-24T10:32:03;102424.31;;;31.32;37.71
59337;BME280;45115;52.002;4.686;2023-06-24T10:34:40;102412.31;;;31.48;39.84
59337;BME280;45115;52.002;4.686;2023-06-24T10:37:19;102420.84;;;31.59;39.19
59337;BME280;45115;52.002;4.686;2023-06-24T10:39:48;102413.44;;;31.70;37.25
59337;BME280;45115;52.002;4.686;2023-06-24T10:42:32;102407.75;;;32.05;37.88
59337;BME280;45115;52.002;4.686;2023-06-24T10:45:16;102410.25;;;31.66;39.00
59337;BME280;45115;52.002;4.686;2023-06-24T10:47:45;102408.13;;;31.97;38.55
59337;BME280;45115;52.002;4.686;2023-06-24T10:50:14;102417.25;;;31.64;38.91
59337;BME280;45115;52.002;4.686;2023-06-24T10:52:43;102410.59;;;31.93;37.62
59337;BME280;45115;52.002;4.686;2023-06-24T10:55:10;102404.31;;;31.68;36.82
59337;BME280;45115;52.002;4.686;2023-06-24T10:57:39;102398.16;;;31.59;39.56
59337;BME280;45115;52.002;4.686;2023-06-24T11:00:07;102397.28;;;31.59;38.02
59337;BME280;45115;52.002;4.686;2023-06-24T11:02:33;102401.75;;;31.66;37.70
59337;BME280;45115;52.002;4.686;2023-06-24T11:05:02;102396.41;;;31.58;37.97
59337;BME280;45115;52.002;4.686;2023-06-24T11:07:32;102401.22;;;31.81;38.51
59337;BME280;45115;52.002;4.686;2023-06-24T11:10:02;102390.50;;;31.83;37.15
59337;BME280;45115;52.002;4.686;2023-06-24T11:12:30;102389.81;;;32.27;37.41
59337;BME280;45115;52.002;4.686;2023-06-24T11:14:58;102382.59;;;32.08;37.47
59337;BME280;45115;52.002;4.686;2023-06-24T11:17:25;102386.94;;;31.99;36.70
59337;BME280;45115;52.002;4.686;2023-06-24T11:19:52;102381.13;;;32.06;35.33
59337;BME280;45115;52.002;4.686;2023-06-24T11:22:19;102381.94;;;32.18;36.61
59337;BME280;45115;52.002;4.686;2023-06-24T11:24:48;102384.16;;;32.27;35.84
59337;BME280;45115;52.002;4.686;2023-06-24T11:27:15;102389.06;;;32.32;36.82
59337;BME280;45115;52.002;4.686;2023-06-24T11:29:42;102382.41;;;32.26;36.38
59337;BME280;45115;52.002;4.686;2023-06-24T11:32:09;102379.78;;;32.08;37.70
59337;BME280;45115;52.002;4.686;2023-06-24T11:34:37;102382.88;;;32.07;35.38
59337;BME280;45115;52.002;4.686;2023-06-24T11:37:14;102381.09;;;32.17;35.83
59337;BME280;45115;52.002;4.686;2023-06-24T11:39:41;102375.44;;;32.57;36.79
59337;BME280;45115;52.002;4.686;2023-06-24T11:42:10;102368.69;;;32.91;35.15
59337;BME280;45115;52.002;4.686;2023-06-24T11:44:41;102367.28;;;32.77;34.49
59337;BME280;45115;52.002;4.686;2023-06-24T11:47:09;102361.25;;;33.02;35.32
59337;BME280;45115;52.002;4.686;2023-06-24T11:49:49;102366.19;;;32.78;36.30
59337;BME280;45115;52.002;4.686;2023-06-24T11:52:16;102355.59;;;32.73;36.14
59337;BME280;45115;52.002;4.686;2023-06-24T11:54:43;102351.28;;;33.16;36.12
59337;BME280;45115;52.002;4.686;2023-06-24T11:57:11;102345.50;;;33.11;33.88
59337;BME280;45115;52.002;4.686;2023-06-24T11:59:38;102356.88;;;33.27;31.99
59337;BME280;45115;52.002;4.686;2023-06-24T12:02:05;102357.50;;;33.29;35.15
59337;BME280;45115;52.002;4.686;2023-06-24T12:04:32;102349.03;;;33.18;32.34
59337;BME280;45115;52.002;4.686;2023-06-24T12:06:59;102345.09;;;33.02;33.85
59337;BME280;45115;52.002;4.686;2023-06-24T12:09:26;102351.56;;;32.98;36.06
59337;BME280;45115;52.002;4.686;2023-06-24T12:11:53;102348.53;;;33.21;35.62
59337;BME280;45115;52.002;4.686;2023-06-24T12:14:21;102348.59;;;33.42;33.86
59337;BME280;45115;52.002;4.686;2023-06-24T12:16:48;102346.19;;;33.89;33.64
59337;BME280;45115;52.002;4.686;2023-06-24T12:19:14;102341.44;;;32.90;34.67
59337;BME280;45115;52.002;4.686;2023-06-24T12:21:41;102347.63;;;32.31;36.13
59337;BME280;45115;52.002;4.686;2023-06-24T12:24:08;102346.38;;;32.38;38.10
59337;BME280;45115;52.002;4.686;2023-06-24T12:26:34;102341.81;;;32.94;36.29
59337;BME280;45115;52.002;4.686;2023-06-24T12:29:02;102332.38;;;33.05;35.54
59337;BME280;45115;52.002;4.686;2023-06-24T12:31:30;102337.75;;;32.33;35.45
59337;BME280;45115;52.002;4.686;2023-06-24T12:33:57;102341.75;;;32.21;36.91
59337;BME280;45115;52.002;4.686;2023-06-24T12:36:23;102333.72;;;32.57;36.97
59337;BME280;45115;52.002;4.686;2023-06-24T12:38:51;102337.16;;;33.37;35.79
59337;BME280;45115;52.002;4.686;2023-06-24T12:41:18;102325.63;;;33.27;35.81
59337;BME280;45115;52.002;4.686;2023-06-24T12:43:44;102322.53;;;33.12;34.21
59337;BME280;45115;52.002;4.686;2023-06-24T12:46:12;102319.25;;;33.04;36.53
59337;BME280;45115;52.002;4.686;2023-06-24T12:48:40;102326.31;;;33.18;36.05
59337;BME280;45115;52.002;4.686;2023-06-24T12:51:06;102322.25;;;33.47;34.88
59337;BME280;45115;52.002;4.686;2023-06-24T12:53:33;102321.41;;;32.97;36.29
59337;BME280;45115;52.002;4.686;2023-06-24T12:56:00;102325.00;;;33.42;34.44